sensor_id;sensor_type;location;lat;lon;timestamp;pressure;altitude;pressure_sealevel;temperature;humidity
73101;BME280;61288;53.446;-2.266;2023-04-09T00:01:25;102170.50;;;7.63;68.60
73101;BME280;61288;53.446;-2.266;2023-04-09T00:03:50;102168.75;;;7.60;68.54
73101;BME280;61288;53.446;-2.266;2023-04-09T00:06:16;102168.78;;;7.59;68.92
73101;BME280;61288;53.446;-2.266;2023-04-09T00:08:41;102173.94;;;7.57;69.79
73101;BME280;61288;53.446;-2.266;2023-04-09T00:11:07;102172.22;;;7.56;69.54
73101;BME280;61288;53.446;-2.266;2023-04-09T00:13:32;102170.50;;;7.55;69.90
73101;BME280;61288;53.446;-2.266;2023-04-09T00:15:58;102171.38;;;7.54;70.72
73101;BME280;61288;53.446;-2.266;2023-04-09T00:18:23;102167.97;;;7.54;70.51
73101;BME280;61288;53.446;-2.266;2023-04-09T00:20:49;102163.66;;;7.53;71.29
73101;BME280;61288;53.446;-2.266;2023-04-09T00:23:15;102166.22;;;7.54;71.61
73101;BME280;61288;53.446;-2.266;2023-04-09T00:25:40;102163.66;;;7.53;71.70
73101;BME280;61288;53.446;-2.266;2023-04-09T00:28:06;102162.81;;;7.49;72.00
73101;BME280;61288;53.446;-2.266;2023-04-09T00:30:32;102165.38;;;7.49;72.57
73101;BME280;61288;53.446;-2.266;2023-04-09T00:32:58;102156.78;;;7.45;72.85
73101;BME280;61288;53.446;-2.266;2023-04-09T00:35:24;102163.69;;;7.46;73.29
73101;BME280;61288;53.446;-2.266;2023-04-09T00:37:50;102161.94;;;7.45;73.27
73101;BME280;61288;53.446;-2.266;2023-04-09T00:40:15;102160.25;;;7.43;73.58
73101;BME280;61288;53.446;-2.266;2023-04-09T00:42:44;102157.66;;;7.41;73.88
73101;BME280;61288;53.446;-2.266;2023-04-09T00:45:10;102155.94;;;7.40;73.87
73101;BME280;61288;53.446;-2.266;2023-04-09T00:47:36;102151.66;;;7.36;74.58
73101;BME280;61288;53.446;-2.266;2023-04-09T00:50:02;102148.25;;;7.31;74.85
73101;BME280;61288;53.446;-2.266;2023-04-09T00:52:28;102148.28;;;7.28;74.97
73101;BME280;61288;53.446;-2.266;2023-04-09T00:54:58;102145.69;;;7.23;75.21
73101;BME280;61288;53.446;-2.266;2023-04-09T00:57:23;102142.25;;;7.24;76.05
73101;BME280;61288;53.446;-2.266;2023-04-09T00:59:49;102137.97;;;7.25;76.26
73101;BME280;61288;53.446;-2.266;2023-04-09T01:02:15;102130.22;;;7.28;76.77
73101;BME280;61288;53.446;-2.266;2023-04-09T01:04:41;102127.63;;;7.31;76.73
73101;BME280;61288;53.446;-2.266;2023-04-09T01:07:30;102131.09;;;7.31;76.92
73101;BME280;61288;53.446;-2.266;2023-04-09T01:13:10;102115.63;;;7.27;77.21
73101;BME280;61288;53.446;-2.266;2023-04-09T01:15:39;102116.47;;;7.29;77.54
73101;BME280;61288;53.446;-2.266;2023-04-09T01:18:21;102117.34;;;7.29;77.93
73101;BME280;61288;53.446;-2.266;2023-04-09T01:29:24;102106.16;;;7.24;78.42
73101;BME280;61288;53.446;-2.266;2023-04-09T01:31:51;102090.72;;;7.19;78.15
73101;BME280;61288;53.446;-2.266;2023-04-09T01:34:19;102089.00;;;7.17;78.43
73101;BME280;61288;53.446;-2.266;2023-04-09T01:36:50;102098.47;;;7.15;78.65
73101;BME280;61288;53.446;-2.266;2023-04-09T01:39:17;102096.75;;;7.14;78.67
73101;BME280;61288;53.446;-2.266;2023-04-09T01:41:42;102102.78;;;7.13;78.94
73101;BME280;61288;53.446;-2.266;2023-04-09T01:44:10;102087.31;;;7.08;78.75
73101;BME280;61288;53.446;-2.266;2023-04-09T01:46:38;102099.34;;;7.06;78.55
73101;BME280;61288;53.446;-2.266;2023-04-09T01:49:05;102089.06;;;7.03;78.87
73101;BME280;61288;53.446;-2.266;2023-04-09T01:51:32;102094.22;;;7.00;79.15
73101;BME280;61288;53.446;-2.266;2023-04-09T01:53:59;102097.69;;;6.96;78.97
73101;BME280;61288;53.446;-2.266;2023-04-09T01:56:25;102092.50;;;6.94;79.01
73101;BME280;61288;53.446;-2.266;2023-04-09T01:58:51;102090.81;;;6.91;79.28
73101;BME280;61288;53.446;-2.266;2023-04-09T02:01:32;102091.69;;;6.87;79.12
73101;BME280;61288;53.446;-2.266;2023-04-09T02:04:02;102089.97;;;6.82;79.23
73101;BME280;61288;53.446;-2.266;2023-04-09T02:06:43;102089.13;;;6.78;79.71
73101;BME280;61288;53.446;-2.266;2023-04-09T02:09:11;102096.03;;;6.71;80.07
73101;BME280;61288;53.446;-2.266;2023-04-09T02:11:40;102095.19;;;6.61;79.94
73101;BME280;61288;53.446;-2.266;2023-04-09T02:14:06;102085.72;;;6.53;80.64
73101;BME280;61288;53.446;-2.266;2023-04-09T02:16:33;102092.63;;;6.47;79.86
73101;BME280;61288;53.446;-2.266;2023-04-09T02:19:00;102084.03;;;6.38;79.24
73101;BME280;61288;53.446;-2.266;2023-04-09T02:21:26;102084.88;;;6.29;80.02
73101;BME280;61288;53.446;-2.266;2023-04-09T02:23:53;102082.31;;;6.26;80.26
73101;BME280;61288;53.446;-2.266;2023-04-09T02:26:20;102090.03;;;6.22;80.64
73101;BME280;61288;53.446;-2.266;2023-04-09T02:28:46;102088.31;;;6.18;80.47
73101;BME280;61288;53.446;-2.266;2023-04-09T02:31:11;102084.91;;;6.15;80.93
73101;BME280;61288;53.446;-2.266;2023-04-09T02:33:37;102081.44;;;6.10;80.68
73101;BME280;61288;53.446;-2.266;2023-04-09T02:36:03;102089.19;;;6.03;81.70
73101;BME280;61288;53.446;-2.266;2023-04-09T02:38:29;102084.00;;;6.00;82.12
73101;BME280;61288;53.446;-2.266;2023-04-09T02:40:55;102083.13;;;5.98;82.13
73101;BME280;61288;53.446;-2.266;2023-04-09T02:43:21;102079.72;;;5.96;82.43
73101;BME280;61288;53.446;-2.266;2023-04-09T02:45:46;102075.41;;;5.92;83.02
73101;BME280;61288;53.446;-2.266;2023-04-09T02:48:12;102074.56;;;5.90;83.61
73101;BME280;61288;53.446;-2.266;2023-04-09T02:50:37;102081.41;;;5.86;83.49
73101;BME280;61288;53.446;-2.266;2023-04-09T02:53:03;102077.13;;;5.81;83.50
73101;BME280;61288;53.446;-2.266;2023-04-09T02:55:28;102088.25;;;5.78;84.20
73101;BME280;61288;53.446;-2.266;2023-04-09T02:57:54;102089.97;;;5.77;84.08
73101;BME280;61288;53.446;-2.266;2023-04-09T03:00:20;102088.25;;;5.81;84.04
73101;BME280;61288;53.446;-2.266;2023-04-09T03:02:46;102080.56;;;5.84;83.97
73101;BME280;61288;53.446;-2.266;2023-04-09T03:05:11;102075.41;;;5.83;83.97
73101;BME280;61288;53.446;-2.266;2023-04-09T03:07:38;102076.25;;;5.83;83.85
73101;BME280;61288;53.446;-2.266;2023-04-09T03:10:03;102068.56;;;5.85;84.56
73101;BME280;61288;53.446;-2.266;2023-04-09T03:12:29;102066.84;;;5.84;84.13
73101;BME280;61288;53.446;-2.266;2023-04-09T03:14:57;102066.84;;;5.81;84.41
73101;BME280;61288;53.446;-2.266;2023-04-09T03:17:23;102068.53;;;5.77;85.02
73101;BME280;61288;53.446;-2.266;2023-04-09T03:19:51;102059.97;;;5.75;84.70
73101;BME280;61288;53.446;-2.266;2023-04-09T03:22:17;102049.66;;;5.76;84.86
73101;BME280;61288;53.446;-2.266;2023-04-09T03:24:43;102053.97;;;5.73;84.73
73101;BME280;61288;53.446;-2.266;2023-04-09T03:27:08;102053.09;;;5.71;85.10
73101;BME280;61288;53.446;-2.266;2023-04-09T03:29:34;102041.94;;;5.67;84.86
73101;BME280;61288;53.446;-2.266;2023-04-09T03:32:00;102047.09;;;5.67;85.06
73101;BME280;61288;53.446;-2.266;2023-04-09T03:34:25;102046.22;;;5.68;84.79
73101;BME280;61288;53.446;-2.266;2023-04-09T03:36:51;102041.09;;;5.68;85.18
73101;BME280;61288;53.446;-2.266;2023-04-09T03:39:16;102036.81;;;5.70;85.41
73101;BME280;61288;53.446;-2.266;2023-04-09T03:41:42;102031.66;;;5.73;84.87
73101;BME280;61288;53.446;-2.266;2023-04-09T03:44:07;102035.97;;;5.73;84.60
73101;BME280;61288;53.446;-2.266;2023-04-09T03:46:33;102031.66;;;5.73;84.85
73101;BME280;61288;53.446;-2.266;2023-04-09T03:48:58;102026.50;;;5.73;84.80
73101;BME280;61288;53.446;-2.266;2023-04-09T03:51:24;102029.09;;;5.73;84.72
73101;BME280;61288;53.446;-2.266;2023-04-09T03:53:51;102020.53;;;5.73;84.64
73101;BME280;61288;53.446;-2.266;2023-04-09T03:56:16;102019.66;;;5.74;84.69
73101;BME280;61288;53.446;-2.266;2023-04-09T03:58:42;102023.09;;;5.73;84.78
73101;BME280;61288;53.446;-2.266;2023-04-09T04:01:07;102017.09;;;5.71;84.62
73101;BME280;61288;53.446;-2.266;2023-04-09T04:03:33;102019.66;;;5.68;84.86
73101;BME280;61288;53.446;-2.266;2023-04-09T04:06:00;102018.78;;;5.61;84.96
73101;BME280;61288;53.446;-2.266;2023-04-09T04:08:26;102014.50;;;5.57;84.84
73101;BME280;61288;53.446;-2.266;2023-04-09T04:10:52;102000.78;;;5.55;84.65
73101;BME280;61288;53.446;-2.266;2023-04-09T04:13:17;102007.66;;;5.53;84.82
73101;BME280;61288;53.446;-2.266;2023-04-09T04:15:43;102007.63;;;5.48;84.94
73101;BME280;61288;53.446;-2.266;2023-04-09T04:18:09;102005.91;;;5.42;85.38
73101;BME280;61288;53.446;-2.266;2023-04-09T04:20:35;102003.31;;;5.39;85.07
73101;BME280;61288;53.446;-2.266;2023-04-09T04:23:02;101996.47;;;5.33;84.47
73101;BME280;61288;53.446;-2.266;2023-04-09T04:25:27;101994.75;;;5.31;85.26
73101;BME280;61288;53.446;-2.266;2023-04-09T04:27:53;102009.28;;;5.23;85.00
73101;BME280;61288;53.446;-2.266;2023-04-09T04:32:54;101995.56;;;5.19;85.77
73101;BME280;61288;53.446;-2.266;2023-04-09T04:35:20;101998.16;;;5.17;85.66
73101;BME280;61288;53.446;-2.266;2023-04-09T04:37:48;101995.56;;;5.16;85.94
73101;BME280;61288;53.446;-2.266;2023-04-09T04:40:15;101981.00;;;5.15;86.33
73101;BME280;61288;53.446;-2.266;2023-04-09T04:42:40;101986.13;;;5.13;86.35
73101;BME280;61288;53.446;-2.266;2023-04-09T04:45:06;101983.53;;;5.13;86.38
73101;BME280;61288;53.446;-2.266;2023-04-09T04:47:32;101980.13;;;5.11;86.44
73101;BME280;61288;53.446;-2.266;2023-04-09T04:49:57;101968.13;;;5.10;86.60
73101;BME280;61288;53.446;-2.266;2023-04-09T04:52:23;101967.25;;;5.08;86.40
73101;BME280;61288;53.446;-2.266;2023-04-09T04:54:48;101957.84;;;5.07;86.82
73101;BME280;61288;53.446;-2.266;2023-04-09T04:57:14;101957.00;;;5.06;86.86
73101;BME280;61288;53.446;-2.266;2023-04-09T04:59:39;101968.13;;;5.04;86.58
73101;BME280;61288;53.446;-2.266;2023-04-09T05:02:06;101968.97;;;5.03;86.96
73101;BME280;61288;53.446;-2.266;2023-04-09T05:04:31;101967.25;;;5.02;86.69
73101;BME280;61288;53.446;-2.266;2023-04-09T05:06:57;101976.66;;;4.94;87.31
73101;BME280;61288;53.446;-2.266;2023-04-09T05:09:22;101975.78;;;4.85;87.64
73101;BME280;61288;53.446;-2.266;2023-04-09T05:11:48;101978.31;;;4.84;87.67
73101;BME280;61288;53.446;-2.266;2023-04-09T05:14:14;101974.06;;;4.84;88.12
73101;BME280;61288;53.446;-2.266;2023-04-09T05:16:39;101969.78;;;4.86;88.37
73101;BME280;61288;53.446;-2.266;2023-04-09T05:19:05;101965.50;;;4.88;88.68
73101;BME280;61288;53.446;-2.266;2023-04-09T05:21:30;101965.50;;;4.90;88.37
73101;BME280;61288;53.446;-2.266;2023-04-09T05:23:56;101962.09;;;4.89;88.25
73101;BME280;61288;53.446;-2.266;2023-04-09T05:26:22;101949.25;;;4.89;88.49
73101;BME280;61288;53.446;-2.266;2023-04-09T05:28:48;101953.53;;;4.90;88.70
73101;BME280;61288;53.446;-2.266;2023-04-09T05:31:14;101951.81;;;4.89;88.55
73101;BME280;61288;53.446;-2.266;2023-04-09T05:33:40;101942.34;;;4.81;87.97
73101;BME280;61288;53.446;-2.266;2023-04-09T05:36:06;101946.63;;;4.80;88.55
73101;BME280;61288;53.446;-2.266;2023-04-09T05:38:31;101935.50;;;4.80;88.47
73101;BME280;61288;53.446;-2.266;2023-04-09T05:40:57;101928.66;;;4.82;88.71
73101;BME280;61288;53.446;-2.266;2023-04-09T05:43:22;101930.38;;;4.81;88.88
73101;BME280;61288;53.446;-2.266;2023-04-09T05:45:48;101923.53;;;4.82;89.36
73101;BME280;61288;53.446;-2.266;2023-04-09T05:48:13;101931.25;;;4.83;89.97
73101;BME280;61288;53.446;-2.266;2023-04-09T05:50:39;101926.94;;;4.84;89.83
73101;BME280;61288;53.446;-2.266;2023-04-09T05:53:04;101925.25;;;4.87;90.17
73101;BME280;61288;53.446;-2.266;2023-04-09T05:55:31;101932.97;;;4.89;90.13
73101;BME280;61288;53.446;-2.266;2023-04-09T05:57:57;101937.25;;;4.91;90.77
73101;BME280;61288;53.446;-2.266;2023-04-09T06:00:22;101938.97;;;4.94;90.38
73101;BME280;61288;53.446;-2.266;2023-04-09T06:02:48;101945.81;;;4.95;91.06
73101;BME280;61288;53.446;-2.266;2023-04-09T06:05:13;101943.25;;;4.97;90.36
73101;BME280;61288;53.446;-2.266;2023-04-09T06:07:39;101950.97;;;4.97;90.50
73101;BME280;61288;53.446;-2.266;2023-04-09T06:10:05;101951.84;;;4.99;90.30
73101;BME280;61288;53.446;-2.266;2023-04-09T06:12:33;101936.41;;;4.99;90.55
73101;BME280;61288;53.446;-2.266;2023-04-09T06:14:59;101937.28;;;4.98;90.37
73101;BME280;61288;53.446;-2.266;2023-04-09T06:17:24;101937.25;;;4.96;90.54
73101;BME280;61288;53.446;-2.266;2023-04-09T06:19:50;101945.84;;;4.97;90.55
73101;BME280;61288;53.446;-2.266;2023-04-09T06:22:15;101942.41;;;4.98;90.80
73101;BME280;61288;53.446;-2.266;2023-04-09T06:24:41;101939.00;;;5.02;91.13
73101;BME280;61288;53.446;-2.266;2023-04-09T06:27:06;101939.84;;;5.07;91.19
73101;BME280;61288;53.446;-2.266;2023-04-09T06:29:32;101943.28;;;5.12;91.09
73101;BME280;61288;53.446;-2.266;2023-04-09T06:31:58;101943.34;;;5.28;90.80
73101;BME280;61288;53.446;-2.266;2023-04-09T06:34:23;101950.22;;;5.68;89.93
73101;BME280;61288;53.446;-2.266;2023-04-09T06:36:50;101951.00;;;6.52;87.53
73101;BME280;61288;53.446;-2.266;2023-04-09T06:39:15;101948.03;;;7.25;83.60
73101;BME280;61288;53.446;-2.266;2023-04-09T06:41:41;101951.88;;;7.87;79.69
73101;BME280;61288;53.446;-2.266;2023-04-09T06:44:07;101947.38;;;8.09;78.38
73101;BME280;61288;53.446;-2.266;2023-04-09T06:46:32;101952.22;;;8.38;77.54
73101;BME280;61288;53.446;-2.266;2023-04-09T06:48:57;101958.00;;;8.64;75.18
73101;BME280;61288;53.446;-2.266;2023-04-09T06:51:23;101953.78;;;8.55;75.74
73101;BME280;61288;53.446;-2.266;2023-04-09T06:53:48;101947.22;;;8.23;75.57
73101;BME280;61288;53.446;-2.266;2023-04-09T06:56:14;101944.19;;;7.79;78.20
73101;BME280;61288;53.446;-2.266;2023-04-09T06:58:39;101944.41;;;7.54;78.97
73101;BME280;61288;53.446;-2.266;2023-04-09T07:01:05;101938.53;;;7.36;80.06
73101;BME280;61288;53.446;-2.266;2023-04-09T07:03:31;101926.63;;;7.17;81.35
73101;BME280;61288;53.446;-2.266;2023-04-09T07:05:56;101931.88;;;7.01;81.77
73101;BME280;61288;53.446;-2.266;2023-04-09T07:08:22;101932.81;;;6.86;82.87
73101;BME280;61288;53.446;-2.266;2023-04-09T07:10:48;101929.41;;;6.76;83.70
73101;BME280;61288;53.446;-2.266;2023-04-09T07:13:14;101928.59;;;6.62;84.08
73101;BME280;61288;53.446;-2.266;2023-04-09T07:15:39;101930.34;;;6.60;84.92
73101;BME280;61288;53.446;-2.266;2023-04-09T07:18:05;101926.03;;;6.62;85.24
73101;BME280;61288;53.446;-2.266;2023-04-09T07:20:31;101925.19;;;6.63;85.26
73101;BME280;61288;53.446;-2.266;2023-04-09T07:22:58;101920.00;;;6.69;85.34
73101;BME280;61288;53.446;-2.266;2023-04-09T07:25:26;101916.50;;;6.78;84.98
73101;BME280;61288;53.446;-2.266;2023-04-09T07:27:54;101911.38;;;6.81;85.00
73101;BME280;61288;53.446;-2.266;2023-04-09T07:30:20;101920.81;;;6.81;85.01
73101;BME280;61288;53.446;-2.266;2023-04-09T07:32:46;101913.88;;;6.90;84.42
73101;BME280;61288;53.446;-2.266;2023-04-09T07:35:12;101915.53;;;7.01;84.51
73101;BME280;61288;53.446;-2.266;2023-04-09T07:37:37;101924.91;;;7.11;83.90
73101;BME280;61288;53.446;-2.266;2023-04-09T07:40:03;101921.44;;;7.20;82.83
73101;BME280;61288;53.446;-2.266;2023-04-09T07:42:29;101928.25;;;7.29;82.78
73101;BME280;61288;53.446;-2.266;2023-04-09T07:44:55;101928.19;;;7.35;82.17
73101;BME280;61288;53.446;-2.266;2023-04-09T07:47:23;101924.75;;;7.37;81.69
73101;BME280;61288;53.446;-2.266;2023-04-09T07:49:49;101934.13;;;7.49;81.58
73101;BME280;61288;53.446;-2.266;2023-04-09T07:52:14;101934.03;;;7.63;81.33
73101;BME280;61288;53.446;-2.266;2023-04-09T07:54:40;101942.53;;;7.70;80.89
73101;BME280;61288;53.446;-2.266;2023-04-09T07:57:06;101937.34;;;7.75;80.51
73101;BME280;61288;53.446;-2.266;2023-04-09T07:59:32;101945.91;;;7.82;80.50
73101;BME280;61288;53.446;-2.266;2023-04-09T08:01:58;101962.13;;;7.91;79.93
73101;BME280;61288;53.446;-2.266;2023-04-09T08:04:24;101947.56;;;7.89;79.55
73101;BME280;61288;53.446;-2.266;2023-04-09T08:06:49;101962.25;;;7.79;78.75
73101;BME280;61288;53.446;-2.266;2023-04-09T08:09:16;101967.38;;;7.82;79.47
73101;BME280;61288;53.446;-2.266;2023-04-09T08:11:42;101977.66;;;7.88;78.89
73101;BME280;61288;53.446;-2.266;2023-04-09T08:14:10;101972.50;;;7.90;79.17
73101;BME280;61288;53.446;-2.266;2023-04-09T08:16:41;101962.09;;;7.96;79.42
73101;BME280;61288;53.446;-2.266;2023-04-09T08:19:07;101958.50;;;8.16;78.46
73101;BME280;61288;53.446;-2.266;2023-04-09T08:21:33;101956.59;;;8.30;77.52
73101;BME280;61288;53.446;-2.266;2023-04-09T08:23:58;101972.78;;;8.45;77.28
73101;BME280;61288;53.446;-2.266;2023-04-09T08:26:29;101964.72;;;8.79;75.61
73101;BME280;61288;53.446;-2.266;2023-04-09T08:28:55;101955.91;;;8.92;73.10
73101;BME280;61288;53.446;-2.266;2023-04-09T08:31:20;101945.75;;;9.39;71.87
73101;BME280;61288;53.446;-2.266;2023-04-09T08:33:46;101936.19;;;9.95;70.56
73101;BME280;61288;53.446;-2.266;2023-04-09T08:36:12;101918.19;;;10.36;68.01
73101;BME280;61288;53.446;-2.266;2023-04-09T08:38:37;101911.66;;;11.01;67.44
73101;BME280;61288;53.446;-2.266;2023-04-09T08:41:04;101909.53;;;11.17;66.43
73101;BME280;61288;53.446;-2.266;2023-04-09T08:43:32;101911.25;;;11.18;64.52
73101;BME280;61288;53.446;-2.266;2023-04-09T08:45:59;101915.22;;;11.33;64.50
73101;BME280;61288;53.446;-2.266;2023-04-09T08:48:25;101916.53;;;11.50;63.62
73101;BME280;61288;53.446;-2.266;2023-04-09T08:50:51;101911.34;;;11.50;62.71
73101;BME280;61288;53.446;-2.266;2023-04-09T08:53:16;101903.75;;;11.77;61.16
73101;BME280;61288;53.446;-2.266;2023-04-09T08:55:46;101897.53;;;11.82;61.10
73101;BME280;61288;53.446;-2.266;2023-04-09T08:58:12;101905.47;;;11.76;61.32
73101;BME280;61288;53.446;-2.266;2023-04-09T09:00:37;101896.94;;;11.73;62.16
73101;BME280;61288;53.446;-2.266;2023-04-09T09:03:08;101892.72;;;12.00;61.46
73101;BME280;61288;53.446;-2.266;2023-04-09T09:05:39;101899.09;;;12.53;59.89
73101;BME280;61288;53.446;-2.266;2023-04-09T09:08:21;101887.66;;;12.28;59.51
73101;BME280;61288;53.446;-2.266;2023-04-09T09:10:47;101891.16;;;12.27;60.24
73101;BME280;61288;53.446;-2.266;2023-04-09T09:13:23;101893.28;;;12.13;59.88
73101;BME280;61288;53.446;-2.266;2023-04-09T09:16:12;101884.09;;;11.32;62.02
73101;BME280;61288;53.446;-2.266;2023-04-09T09:18:40;101881.97;;;11.13;63.16
73101;BME280;61288;53.446;-2.266;2023-04-09T09:23:35;101878.47;;;10.76;64.10
73101;BME280;61288;53.446;-2.266;2023-04-09T09:26:10;101870.88;;;10.68;64.97
73101;BME280;61288;53.446;-2.266;2023-04-09T09:28:36;101871.88;;;10.61;66.22
73101;BME280;61288;53.446;-2.266;2023-04-09T09:31:10;101863.47;;;10.51;65.23
73101;BME280;61288;53.446;-2.266;2023-04-09T09:33:36;101865.97;;;10.56;65.04
73101;BME280;61288;53.446;-2.266;2023-04-09T09:36:02;101858.00;;;11.03;64.03
73101;BME280;61288;53.446;-2.266;2023-04-09T09:38:31;101856.47;;;11.64;62.29
73101;BME280;61288;53.446;-2.266;2023-04-09T09:40:57;101865.91;;;12.01;61.33
73101;BME280;61288;53.446;-2.266;2023-04-09T09:43:39;101858.94;;;12.33;58.90
73101;BME280;61288;53.446;-2.266;2023-04-09T09:46:05;101857.47;;;12.81;58.20
73101;BME280;61288;53.446;-2.266;2023-04-09T09:48:31;101864.34;;;12.84;57.48
73101;BME280;61288;53.446;-2.266;2023-04-09T09:50:57;101859.50;;;13.00;56.73
73101;BME280;61288;53.446;-2.266;2023-04-09T09:53:23;101866.78;;;12.62;56.84
73101;BME280;61288;53.446;-2.266;2023-04-09T09:55:52;101863.81;;;12.73;56.86
73101;BME280;61288;53.446;-2.266;2023-04-09T09:58:27;101860.81;;;12.58;57.25
73101;BME280;61288;53.446;-2.266;2023-04-09T10:00:56;101847.81;;;12.58;57.36
73101;BME280;61288;53.446;-2.266;2023-04-09T10:03:25;101835.63;;;12.87;57.05
73101;BME280;61288;53.446;-2.266;2023-04-09T10:05:52;101833.56;;;12.70;55.97
73101;BME280;61288;53.446;-2.266;2023-04-09T10:08:19;101840.31;;;12.47;57.06
73101;BME280;61288;53.446;-2.266;2023-04-09T10:10:46;101836.81;;;12.20;57.90
73101;BME280;61288;53.446;-2.266;2023-04-09T10:13:20;101826.06;;;12.61;57.53
73101;BME280;61288;53.446;-2.266;2023-04-09T10:15:50;101817.47;;;12.85;56.26
73101;BME280;61288;53.446;-2.266;2023-04-09T10:18:16;101813.41;;;13.04;55.73
73101;BME280;61288;53.446;-2.266;2023-04-09T10:20:48;101819.34;;;12.82;56.17
73101;BME280;61288;53.446;-2.266;2023-04-09T10:23:37;101802.28;;;13.25;55.34
73101;BME280;61288;53.446;-2.266;2023-04-09T10:26:03;101795.63;;;13.43;54.64
73101;BME280;61288;53.446;-2.266;2023-04-09T10:28:30;101791.59;;;13.60;53.93
73101;BME280;61288;53.446;-2.266;2023-04-09T10:30:56;101794.03;;;13.89;53.71
73101;BME280;61288;53.446;-2.266;2023-04-09T10:33:24;101790.25;;;13.97;53.65
73101;BME280;61288;53.446;-2.266;2023-04-09T10:35:55;101784.25;;;13.95;53.23
73101;BME280;61288;53.446;-2.266;2023-04-09T10:38:37;101772.31;;;14.12;52.98
73101;BME280;61288;53.446;-2.266;2023-04-09T10:41:27;101770.22;;;13.98;51.87
73101;BME280;61288;53.446;-2.266;2023-04-09T10:43:56;101758.34;;;13.91;52.44
73101;BME280;61288;53.446;-2.266;2023-04-09T10:46:35;101753.50;;;13.81;52.65
73101;BME280;61288;53.446;-2.266;2023-04-09T10:49:18;101748.38;;;13.54;53.02
73101;BME280;61288;53.446;-2.266;2023-04-09T10:59:32;101737.75;;;13.61;52.81
73101;BME280;61288;53.446;-2.266;2023-04-09T11:01:58;101730.59;;;13.66;52.76
73101;BME280;61288;53.446;-2.266;2023-04-09T11:04:32;101735.25;;;13.81;52.79
73101;BME280;61288;53.446;-2.266;2023-04-09T11:07:05;101731.69;;;13.60;52.92
73101;BME280;61288;53.446;-2.266;2023-04-09T11:09:34;101720.47;;;13.33;53.57
73101;BME280;61288;53.446;-2.266;2023-04-09T11:12:00;101721.72;;;13.22;54.18
73101;BME280;61288;53.446;-2.266;2023-04-09T11:14:26;101720.13;;;13.18;54.12
73101;BME280;61288;53.446;-2.266;2023-04-09T11:16:51;101703.97;;;13.34;54.23
73101;BME280;61288;53.446;-2.266;2023-04-09T11:19:19;101702.53;;;13.50;54.15
73101;BME280;61288;53.446;-2.266;2023-04-09T11:21:44;101697.38;;;13.49;53.73
73101;BME280;61288;53.446;-2.266;2023-04-09T11:24:11;101693.19;;;13.45;53.76
73101;BME280;61288;53.446;-2.266;2023-04-09T11:26:37;101694.53;;;13.79;54.60
73101;BME280;61288;53.446;-2.266;2023-04-09T11:29:08;101691.19;;;13.75;54.97
73101;BME280;61288;53.446;-2.266;2023-04-09T11:31:35;101687.19;;;13.66;53.30
73101;BME280;61288;53.446;-2.266;2023-04-09T11:34:01;101678.09;;;13.77;54.53
73101;BME280;61288;53.446;-2.266;2023-04-09T11:36:28;101682.75;;;13.92;53.01
73101;BME280;61288;53.446;-2.266;2023-04-09T11:38:54;101676.25;;;14.03;53.64
73101;BME280;61288;53.446;-2.266;2023-04-09T11:41:36;101666.84;;;14.21;53.39
73101;BME280;61288;53.446;-2.266;2023-04-09T11:44:06;101669.72;;;14.35;52.76
73101;BME280;61288;53.446;-2.266;2023-04-09T11:46:33;101666.16;;;14.38;52.51
73101;BME280;61288;53.446;-2.266;2023-04-09T11:48:59;101660.34;;;14.31;53.38
73101;BME280;61288;53.446;-2.266;2023-04-09T11:51:26;101653.66;;;14.25;52.88
73101;BME280;61288;53.446;-2.266;2023-04-09T11:53:53;101653.47;;;14.71;52.36
73101;BME280;61288;53.446;-2.266;2023-04-09T11:56:19;101654.72;;;15.04;53.57
73101;BME280;61288;53.446;-2.266;2023-04-09T11:58:46;101657.63;;;15.17;51.37
73101;BME280;61288;53.446;-2.266;2023-04-09T12:01:12;101650.75;;;14.75;52.41
73101;BME280;61288;53.446;-2.266;2023-04-09T12:03:38;101648.50;;;14.65;52.54
73101;BME280;61288;53.446;-2.266;2023-04-09T12:06:07;101641.34;;;14.70;52.90
73101;BME280;61288;53.446;-2.266;2023-04-09T12:08:34;101640.78;;;15.04;54.04
73101;BME280;61288;53.446;-2.266;2023-04-09T12:11:10;101650.84;;;15.13;52.79
73101;BME280;61288;53.446;-2.266;2023-04-09T12:13:36;101638.56;;;15.15;52.20
73101;BME280;61288;53.446;-2.266;2023-04-09T12:16:04;101653.47;;;15.13;51.88
73101;BME280;61288;53.446;-2.266;2023-04-09T12:18:29;101649.03;;;15.15;52.46
73101;BME280;61288;53.446;-2.266;2023-04-09T12:20:55;101642.88;;;15.35;51.83
73101;BME280;61288;53.446;-2.266;2023-04-09T12:23:20;101640.56;;;15.48;51.73
73101;BME280;61288;53.446;-2.266;2023-04-09T12:25:46;101644.72;;;15.52;52.23
73101;BME280;61288;53.446;-2.266;2023-04-09T12:28:13;101640.91;;;15.40;52.36
73101;BME280;61288;53.446;-2.266;2023-04-09T12:30:41;101645.53;;;15.14;52.91
73101;BME280;61288;53.446;-2.266;2023-04-09T12:33:07;101643.72;;;15.36;53.64
73101;BME280;61288;53.446;-2.266;2023-04-09T12:35:33;101655.84;;;15.37;51.21
73101;BME280;61288;53.446;-2.266;2023-04-09T12:38:00;101651.41;;;15.39;50.66
73101;BME280;61288;53.446;-2.266;2023-04-09T12:40:26;101641.19;;;15.15;51.47
73101;BME280;61288;53.446;-2.266;2023-04-09T12:42:58;101640.28;;;14.95;53.09
73101;BME280;61288;53.446;-2.266;2023-04-09T12:45:24;101630.78;;;14.94;52.83
73101;BME280;61288;53.446;-2.266;2023-04-09T12:47:49;101628.94;;;14.96;52.15
73101;BME280;61288;53.446;-2.266;2023-04-09T12:50:15;101630.66;;;15.16;51.75
73101;BME280;61288;53.446;-2.266;2023-04-09T12:52:41;101621.38;;;14.90;52.08
73101;BME280;61288;53.446;-2.266;2023-04-09T12:55:08;101623.59;;;14.99;54.58
73101;BME280;61288;53.446;-2.266;2023-04-09T12:57:36;101617.81;;;14.93;53.93
73101;BME280;61288;53.446;-2.266;2023-04-09T13:00:02;101620.19;;;14.97;54.47
73101;BME280;61288;53.446;-2.266;2023-04-09T13:02:29;101608.16;;;14.95;53.07
73101;BME280;61288;53.446;-2.266;2023-04-09T13:04:56;101607.38;;;14.93;53.74
73101;BME280;61288;53.446;-2.266;2023-04-09T13:07:21;101611.38;;;14.81;54.58
73101;BME280;61288;53.446;-2.266;2023-04-09T13:09:47;101606.00;;;14.63;54.73